West Hartland, Connecticut
Current Conditions -  °F | °C
As of 11:51 AM on Saturday 22 Nov 2014 (Local Time) from KBDL Reporting Station
Broken Clouds Broken Clouds  
Wind Chill: 31°   Ceiling: 17000
Heat Index: 38°   Visibility: 10mi
Dew Point: 10°   Wind: 9mph
Humidity: 32%   Direction: 220°SW
Pressure: 30.28"   Gusts: NA
Location:  42°N, 72.97°W
Report Text: KBDL 221651Z 22008KT 10SM FEW120 BKN170 BKN200 BKN250 03/M12 A3028 RMK AO2 SLP255 T00331122
Loading
Personal Weather Stations






























Interactive Weather Map New forecast layout! Learn more

10-Day Weather Forecast

Advertisements
Track Severe Weather on mobile